createdAt,value
2018-01-20T00:00:49.868Z,4.33
2018-01-20T00:01:49.908Z,4.39
2018-01-20T00:02:49.952Z,4.37
2018-01-20T00:03:50.012Z,4.40
2018-01-20T00:04:50.041Z,4.42
2018-01-20T00:05:50.096Z,4.37
2018-01-20T00:06:50.118Z,4.39
2018-01-20T00:07:50.161Z,4.42
2018-01-20T00:08:50.201Z,4.40
2018-01-20T00:09:50.260Z,4.37
2018-01-20T00:10:50.305Z,4.47
2018-01-20T00:11:50.329Z,4.44
2018-01-20T00:12:50.371Z,4.43
2018-01-20T00:13:50.410Z,4.37
2018-01-20T00:14:50.471Z,4.39
2018-01-20T00:15:50.546Z,4.36
2018-01-20T00:16:50.537Z,4.37
2018-01-20T00:17:50.579Z,4.39
2018-01-20T00:18:50.620Z,4.43
2018-01-20T00:19:50.678Z,4.40
2018-01-20T00:20:50.706Z,4.34
2018-01-20T00:21:50.749Z,4.42
2018-01-20T00:22:50.787Z,4.42
2018-01-20T00:23:50.829Z,4.44
2018-01-20T00:24:50.893Z,4.34
2018-01-20T00:25:50.912Z,4.40
2018-01-20T00:26:50.954Z,4.34
2018-01-20T00:27:50.995Z,4.33
2018-01-20T00:28:51.040Z,4.26
2018-01-20T00:29:51.101Z,4.28
2018-01-20T00:30:51.122Z,4.24
2018-01-20T00:31:51.166Z,4.22
2018-01-20T00:32:51.206Z,4.24
2018-01-20T00:33:51.253Z,4.33
2018-01-20T00:34:51.306Z,4.25
2018-01-20T00:35:51.332Z,4.25
2018-01-20T00:36:51.392Z,4.32
2018-01-20T00:37:51.417Z,4.18
2018-01-20T00:38:51.460Z,4.18
2018-01-20T00:39:51.496Z,4.24
2018-01-20T00:40:51.559Z,4.24
2018-01-20T00:41:51.584Z,4.21
2018-01-20T00:42:51.626Z,4.08
2018-01-20T00:43:51.665Z,4.10
2018-01-20T00:44:51.708Z,4.08
2018-01-20T00:45:51.765Z,4.07
2018-01-20T00:46:51.791Z,4.15
2018-01-20T00:47:51.837Z,4.19
2018-01-20T00:48:51.874Z,4.19
2018-01-20T00:49:51.916Z,4.22
2018-01-20T00:50:51.979Z,4.21
2018-01-20T00:51:52.006Z,4.06
2018-01-20T00:52:52.041Z,4.07
2018-01-20T00:53:52.085Z,3.98
2018-01-20T00:54:52.130Z,4.04
2018-01-20T00:55:52.188Z,3.98
2018-01-20T00:56:52.233Z,3.98
2018-01-20T00:57:52.251Z,3.98
2018-01-20T00:58:52.295Z,4.00
2018-01-20T00:59:52.333Z,4.07
2018-01-20T01:00:52.393Z,4.03
2018-01-20T01:01:52.418Z,4.18
2018-01-20T01:02:52.463Z,4.14
2018-01-20T01:03:52.516Z,4.14
2018-01-20T01:04:52.538Z,4.15
2018-01-20T01:05:52.594Z,4.06
2018-01-20T01:06:52.641Z,4.19
2018-01-20T01:07:52.666Z,4.19
2018-01-20T01:08:52.708Z,4.18
2018-01-20T01:09:52.749Z,4.15
2018-01-20T01:10:52.789Z,4.14
2018-01-20T01:11:52.852Z,4.10
2018-01-20T01:12:52.878Z,4.12
2018-01-20T01:13:52.916Z,3.98
2018-01-20T01:14:52.960Z,4.06
2018-01-20T01:15:53.018Z,3.97
2018-01-20T01:16:53.060Z,3.94
2018-01-20T01:17:53.085Z,4.03
2018-01-20T01:18:53.126Z,4.07
2018-01-20T01:19:53.173Z,3.90
2018-01-20T01:20:53.216Z,3.94
2018-01-20T01:21:53.267Z,4.01
2018-01-20T01:22:53.297Z,4.01
2018-01-20T01:23:53.336Z,4.00
2018-01-20T01:24:53.374Z,4.07
2018-01-20T01:25:53.420Z,3.98
2018-01-20T01:26:53.481Z,4.16
2018-01-20T01:27:53.498Z,4.08
2018-01-20T01:28:53.543Z,4.06
2018-01-20T01:29:53.587Z,4.16
2018-01-20T01:30:53.626Z,4.14
2018-01-20T01:31:53.696Z,4.21
2018-01-20T01:32:53.708Z,4.16
2018-01-20T01:33:53.749Z,4.16
2018-01-20T01:34:53.795Z,4.19
2018-01-20T01:35:53.839Z,4.22
2018-01-20T01:36:53.898Z,4.24
2018-01-20T01:37:53.915Z,4.22
2018-01-20T01:38:53.973Z,4.18
2018-01-20T01:39:53.999Z,4.24
2018-01-20T01:40:54.043Z,4.16
2018-01-20T01:41:54.085Z,4.22
2018-01-20T01:42:54.139Z,4.21
2018-01-20T01:43:54.184Z,3.97
2018-01-20T01:44:54.207Z,3.92
2018-01-20T01:45:54.277Z,3.89
2018-01-20T01:46:54.291Z,3.79
2018-01-20T01:47:54.350Z,3.76
2018-01-20T01:48:54.409Z,3.62
2018-01-20T01:49:54.425Z,3.64
2018-01-20T01:50:54.459Z,3.54
2018-01-20T01:51:54.527Z,3.47
2018-01-20T01:52:54.543Z,3.53
2018-01-20T01:53:54.599Z,3.42
2018-01-20T01:54:54.624Z,3.42
2018-01-20T01:55:54.665Z,3.34
2018-01-20T01:56:54.709Z,3.36
2018-01-20T01:57:54.749Z,3.24
2018-01-20T01:58:54.805Z,3.13
2018-01-20T01:59:54.831Z,3.02
2018-01-20T02:00:54.880Z,3.05
2018-01-20T02:01:54.917Z,3.03
2018-01-20T02:02:54.954Z,3.05
2018-01-20T02:03:55.021Z,2.98
2018-01-20T02:04:55.054Z,3.00
2018-01-20T02:05:55.080Z,2.94
2018-01-20T02:06:55.122Z,2.97
2018-01-20T02:07:55.164Z,3.00
2018-01-20T02:08:55.221Z,2.97
2018-01-20T02:09:55.249Z,2.98
2018-01-20T02:10:55.285Z,2.92
2018-01-20T02:11:55.326Z,2.97
2018-01-20T02:12:55.371Z,2.94
2018-01-20T02:13:55.428Z,2.98
2018-01-20T02:14:56.251Z,2.97
2018-01-20T02:15:55.519Z,3.05
2018-01-20T02:16:55.530Z,3.06
2018-01-20T02:17:55.573Z,3.05
2018-01-20T02:18:55.612Z,3.03
2018-01-20T02:19:55.660Z,3.10
2018-01-20T02:20:55.713Z,3.10
2018-01-20T02:21:55.740Z,2.97
2018-01-20T02:22:55.777Z,3.05
2018-01-20T02:23:55.837Z,3.10
2018-01-20T02:24:55.859Z,3.21
2018-01-20T02:25:55.901Z,3.30
2018-01-20T02:26:55.942Z,3.23
2018-01-20T02:27:55.979Z,3.21
2018-01-20T02:28:56.041Z,3.34
2018-01-20T02:29:56.067Z,3.34
2018-01-20T02:30:56.108Z,3.28
2018-01-20T02:31:56.144Z,3.36
2018-01-20T02:32:56.190Z,3.39
2018-01-20T02:33:56.253Z,3.40
2018-01-20T02:34:56.272Z,3.39
2018-01-20T02:35:56.313Z,3.42
2018-01-20T02:36:56.353Z,3.39
2018-01-20T02:37:56.394Z,3.57
2018-01-20T02:38:56.456Z,3.33
2018-01-20T02:39:56.476Z,3.50
2018-01-20T02:40:56.523Z,3.42
2018-01-20T02:41:56.568Z,3.36
2018-01-20T02:42:56.605Z,3.39
2018-01-20T02:43:56.659Z,3.31
2018-01-20T02:44:56.684Z,3.33
2018-01-20T02:45:56.736Z,3.36
2018-01-20T02:46:56.771Z,3.42
2018-01-20T02:47:56.805Z,3.39
2018-01-20T02:48:56.870Z,3.39
2018-01-20T02:49:56.906Z,3.34
2018-01-20T02:50:56.931Z,3.42
2018-01-20T02:51:56.969Z,3.49
2018-01-20T02:52:57.011Z,3.54
2018-01-20T02:53:57.053Z,3.39
2018-01-20T02:54:57.125Z,3.42
2018-01-20T02:55:57.136Z,3.33
2018-01-20T02:56:57.186Z,3.34
2018-01-20T02:57:57.216Z,3.31
2018-01-20T02:58:57.260Z,3.28
2018-01-20T02:59:57.318Z,3.30
2018-01-20T03:00:57.361Z,3.34
2018-01-20T03:01:57.385Z,3.47
2018-01-20T03:02:57.422Z,3.54
2018-01-20T03:03:57.467Z,3.47
2018-01-20T03:04:57.506Z,3.54
2018-01-20T03:05:57.566Z,3.53
2018-01-20T03:06:57.585Z,3.53
2018-01-20T03:07:57.631Z,3.58
2018-01-20T03:08:57.669Z,3.62
2018-01-20T03:09:57.713Z,3.68
2018-01-20T03:10:57.788Z,3.64
2018-01-20T03:11:57.796Z,3.64
2018-01-20T03:12:57.832Z,3.75
2018-01-20T03:13:57.877Z,3.72
2018-01-20T03:14:57.941Z,3.76
2018-01-20T03:15:57.997Z,3.78
2018-01-20T03:16:58.002Z,3.71
2018-01-20T03:17:58.042Z,3.60
2018-01-20T03:18:58.084Z,3.65
2018-01-20T03:19:58.125Z,3.71
2018-01-20T03:20:58.199Z,3.57
2018-01-20T03:21:58.212Z,3.58
2018-01-20T03:22:58.250Z,3.47
2018-01-20T03:23:58.289Z,3.49
2018-01-20T03:24:58.331Z,3.62
2018-01-20T03:25:58.394Z,3.49
2018-01-20T03:26:58.414Z,3.47
2018-01-20T03:27:58.455Z,3.53
2018-01-20T03:28:58.496Z,3.58
2018-01-20T03:29:58.540Z,3.53
2018-01-20T03:30:58.600Z,3.44
2018-01-20T03:31:58.647Z,3.44
2018-01-20T03:32:58.670Z,3.46
2018-01-20T03:33:58.704Z,3.52
2018-01-20T03:34:58.746Z,3.49
2018-01-20T03:35:58.787Z,3.54
2018-01-20T03:36:58.863Z,3.58
2018-01-20T03:37:58.877Z,3.53
2018-01-20T03:38:58.911Z,3.68
2018-01-20T03:39:58.953Z,3.79
2018-01-20T03:40:58.998Z,3.79
2018-01-20T03:41:59.084Z,3.76
2018-01-20T03:42:59.078Z,3.72
2018-01-20T03:43:59.124Z,3.70
2018-01-20T03:44:59.161Z,3.68
2018-01-20T03:45:59.204Z,3.70
2018-01-20T03:46:59.280Z,3.78
2018-01-20T03:47:59.291Z,3.80
2018-01-20T03:48:59.328Z,3.88
2018-01-20T03:49:59.367Z,3.96
2018-01-20T03:50:59.408Z,3.97
2018-01-20T03:51:59.485Z,3.94
2018-01-20T03:52:59.494Z,3.90
2018-01-20T03:53:59.533Z,3.94
2018-01-20T03:54:59.583Z,3.90
2018-01-20T03:55:59.617Z,3.88
2018-01-20T03:56:59.679Z,4.01
2018-01-20T03:57:59.729Z,3.88
2018-01-20T03:58:59.740Z,3.88
2018-01-20T04:00:00.748Z,3.89
2018-01-20T04:00:59.829Z,3.89
2018-01-20T04:01:59.867Z,3.89
2018-01-20T04:02:59.955Z,3.94
2018-01-20T04:03:59.954Z,3.98
2018-01-20T04:04:59.993Z,4.03
2018-01-20T04:06:00.043Z,4.01
2018-01-20T04:07:00.079Z,4.03
2018-01-20T04:08:00.137Z,4.07
2018-01-20T04:09:00.178Z,3.98
2018-01-20T04:10:00.203Z,4.03
2018-01-20T04:11:00.245Z,4.01
2018-01-20T04:12:00.286Z,4.03
2018-01-20T04:13:00.326Z,4.06
2018-01-20T04:14:00.379Z,4.14
2018-01-20T04:15:00.411Z,4.10
2018-01-20T04:16:00.451Z,4.12
2018-01-20T04:17:00.496Z,4.21
2018-01-20T04:18:00.540Z,4.22
2018-01-20T04:19:00.594Z,4.22
2018-01-20T04:20:00.622Z,4.24
2018-01-20T04:21:00.687Z,4.25
2018-01-20T04:22:00.706Z,4.16
2018-01-20T04:23:00.741Z,4.24
2018-01-20T04:24:00.802Z,4.18
2018-01-20T04:25:00.832Z,4.24
2018-01-20T04:26:00.871Z,4.22
2018-01-20T04:27:00.911Z,4.16
2018-01-20T04:28:00.951Z,4.24
2018-01-20T04:29:01.012Z,4.19
2018-01-20T04:30:01.037Z,4.24
2018-01-20T04:31:01.078Z,4.26
2018-01-20T04:32:01.120Z,4.34
2018-01-20T04:33:01.163Z,4.29
2018-01-20T04:34:01.219Z,4.32
2018-01-20T04:35:01.244Z,4.33
2018-01-20T04:36:01.289Z,4.29
2018-01-20T04:37:01.328Z,4.28
2018-01-20T04:38:01.375Z,4.26
2018-01-20T04:39:01.427Z,4.32
2018-01-20T04:40:01.457Z,4.36
2018-01-20T04:41:01.496Z,4.24
2018-01-20T04:42:01.533Z,4.33
2018-01-20T04:43:01.578Z,4.32
2018-01-20T04:44:01.638Z,4.29
2018-01-20T04:45:01.660Z,4.37
2018-01-20T04:46:01.706Z,4.33
2018-01-20T04:47:01.742Z,4.36
2018-01-20T04:48:01.786Z,4.33
2018-01-20T04:49:01.863Z,4.29
2018-01-20T04:50:01.871Z,4.36
2018-01-20T04:51:01.913Z,4.36
2018-01-20T04:52:01.954Z,4.37
2018-01-20T04:53:01.997Z,4.42
2018-01-20T04:54:02.055Z,4.32
2018-01-20T04:55:02.079Z,4.32
2018-01-20T04:56:02.742Z,4.33
2018-01-20T04:57:02.172Z,4.26
2018-01-20T04:58:02.201Z,4.32
2018-01-20T04:59:02.261Z,4.28
2018-01-20T05:00:02.308Z,4.26
2018-01-20T05:01:02.331Z,4.29
2018-01-20T05:02:02.371Z,4.32
2018-01-20T05:03:02.419Z,4.37
2018-01-20T05:04:02.455Z,4.39
2018-01-20T05:05:02.532Z,4.39
2018-01-20T05:06:02.540Z,4.34
2018-01-20T05:07:02.585Z,4.37
2018-01-20T05:08:02.620Z,4.34
2018-01-20T05:09:02.668Z,4.47
2018-01-20T05:10:02.744Z,4.36
2018-01-20T05:11:02.756Z,4.43
2018-01-20T05:12:02.787Z,4.44
2018-01-20T05:13:02.832Z,4.43
2018-01-20T05:14:02.872Z,4.52
2018-01-20T05:15:02.931Z,4.44
2018-01-20T05:16:02.982Z,4.50
2018-01-20T05:17:03.005Z,4.52
2018-01-20T05:18:03.040Z,4.39
2018-01-20T05:19:03.081Z,4.47
2018-01-20T05:20:03.131Z,4.43
2018-01-20T05:21:03.184Z,4.50
2018-01-20T05:22:03.207Z,4.46
2018-01-20T05:23:03.247Z,4.46
2018-01-20T05:24:03.289Z,4.54
2018-01-20T05:25:03.333Z,4.50
2018-01-20T05:26:03.393Z,4.50
2018-01-20T05:27:03.432Z,4.44
2018-01-20T05:28:03.455Z,4.47
2018-01-20T05:29:03.498Z,4.51
2018-01-20T05:30:03.540Z,4.57
2018-01-20T05:31:03.614Z,4.51
2018-01-20T05:32:03.619Z,4.51
2018-01-20T05:33:03.681Z,4.51
2018-01-20T05:34:03.706Z,4.55
2018-01-20T05:35:03.756Z,4.51
2018-01-20T05:36:04.283Z,4.42
2018-01-20T05:37:03.833Z,4.46
2018-01-20T05:38:03.875Z,4.43
2018-01-20T05:39:03.918Z,4.39
2018-01-20T05:40:03.965Z,4.47
2018-01-20T05:41:04.001Z,4.51
2018-01-20T05:42:04.058Z,4.50
2018-01-20T05:43:04.102Z,4.51
2018-01-20T05:44:04.126Z,4.50
2018-01-20T05:45:04.167Z,4.54
2018-01-20T05:46:04.228Z,4.55
2018-01-20T05:47:04.289Z,4.54
2018-01-20T05:48:04.296Z,4.51
2018-01-20T05:49:04.333Z,4.54
2018-01-20T05:50:04.381Z,4.46
2018-01-20T05:51:04.417Z,4.54
2018-01-20T05:52:04.492Z,4.51
2018-01-20T05:53:04.505Z,4.47
2018-01-20T05:54:04.543Z,4.51
2018-01-20T05:55:04.584Z,4.50
2018-01-20T05:56:04.630Z,4.52
2018-01-20T05:57:04.687Z,4.47
2018-01-20T05:58:04.727Z,4.46
2018-01-20T05:59:04.752Z,4.54
2018-01-20T06:00:04.796Z,4.50
2018-01-20T06:01:04.837Z,4.61
2018-01-20T06:02:04.884Z,4.54
2018-01-20T06:03:04.937Z,4.58
2018-01-20T06:04:04.962Z,4.69
2018-01-20T06:05:05.002Z,4.57
2018-01-20T06:06:05.047Z,4.47
2018-01-20T06:07:05.087Z,4.50
2018-01-20T06:08:05.149Z,4.47
2018-01-20T06:09:05.194Z,4.50
2018-01-20T06:10:05.220Z,4.51
2018-01-20T06:11:05.258Z,4.54
2018-01-20T06:12:05.297Z,4.52
2018-01-20T06:13:05.377Z,4.51
2018-01-20T06:14:05.382Z,4.47
2018-01-20T06:15:05.424Z,4.50
2018-01-20T06:16:05.464Z,4.54
2018-01-20T06:17:05.507Z,4.54
2018-01-20T06:18:05.569Z,4.52
2018-01-20T06:19:05.611Z,4.46
2018-01-20T06:20:05.644Z,4.54
2018-01-20T06:21:05.674Z,4.50
2018-01-20T06:22:05.717Z,4.51
2018-01-20T06:23:05.755Z,4.59
2018-01-20T06:24:05.873Z,4.47
2018-01-20T06:25:05.847Z,4.67
2018-01-20T06:26:05.886Z,4.61
2018-01-20T06:27:05.934Z,4.67
2018-01-20T06:28:05.970Z,4.70
2018-01-20T06:29:06.030Z,4.62
2018-01-20T06:30:06.056Z,4.69
2018-01-20T06:31:06.100Z,4.67
2018-01-20T06:32:06.138Z,4.65
2018-01-20T06:33:06.179Z,4.70
2018-01-20T06:34:06.254Z,4.69
2018-01-20T06:35:06.260Z,4.73
2018-01-20T06:36:06.302Z,4.76
2018-01-20T06:37:06.347Z,4.72
2018-01-20T06:38:06.388Z,4.86
2018-01-20T06:39:06.466Z,4.80
2018-01-20T06:40:06.470Z,4.83
2018-01-20T06:41:06.517Z,4.88
2018-01-20T06:42:06.559Z,4.84
2018-01-20T06:43:06.599Z,4.83
2018-01-20T06:44:06.674Z,4.83
2018-01-20T06:45:06.688Z,4.75
2018-01-20T06:46:06.722Z,4.69
2018-01-20T06:47:06.775Z,4.83
2018-01-20T06:48:06.808Z,4.79
2018-01-20T06:49:06.892Z,4.79
2018-01-20T06:50:06.894Z,4.76
2018-01-20T06:51:06.934Z,4.77
2018-01-20T06:52:06.972Z,4.83
2018-01-20T06:53:07.017Z,4.70
2018-01-20T06:54:07.081Z,4.73
2018-01-20T06:55:07.111Z,4.69
2018-01-20T06:56:07.142Z,4.76
2018-01-20T06:57:07.184Z,4.62
2018-01-20T06:58:07.229Z,4.65
2018-01-20T06:59:07.271Z,4.64
2018-01-20T07:00:07.334Z,4.61
2018-01-20T07:01:07.357Z,4.62
2018-01-20T07:02:07.400Z,4.59
2018-01-20T07:03:07.440Z,4.70
2018-01-20T07:04:07.482Z,4.62
2018-01-20T07:05:07.558Z,4.67
2018-01-20T07:06:07.565Z,4.64
2018-01-20T07:07:07.604Z,4.70
2018-01-20T07:08:07.649Z,4.72
2018-01-20T07:09:07.689Z,4.72
2018-01-20T07:10:07.748Z,4.73
2018-01-20T07:11:07.789Z,4.79
2018-01-20T07:12:07.865Z,4.70
2018-01-20T07:13:07.862Z,4.64
2018-01-20T07:14:07.905Z,4.62
2018-01-20T07:15:07.945Z,4.70
2018-01-20T07:16:08.027Z,4.65
2018-01-20T07:17:08.026Z,4.69
2018-01-20T07:18:08.075Z,4.65
2018-01-20T07:19:08.110Z,4.47
2018-01-20T07:20:08.149Z,4.46
2018-01-20T07:21:08.213Z,4.37
2018-01-20T07:22:08.238Z,4.24
2018-01-20T07:23:08.278Z,4.19
2018-01-20T07:24:08.321Z,4.08
2018-01-20T07:25:08.362Z,4.08
2018-01-20T07:26:08.421Z,4.00
2018-01-20T07:27:08.447Z,4.00
2018-01-20T07:28:08.487Z,4.01
2018-01-20T07:29:08.533Z,3.79
2018-01-20T07:30:08.570Z,3.76
2018-01-20T07:31:08.628Z,3.79
2018-01-20T07:32:08.670Z,3.72
2018-01-20T07:33:08.697Z,3.72
2018-01-20T07:34:08.736Z,3.70
2018-01-20T07:35:08.794Z,3.65
2018-01-20T07:36:08.839Z,3.57
2018-01-20T07:37:08.865Z,3.47
2018-01-20T07:38:08.904Z,3.54
2018-01-20T07:39:08.946Z,3.47
2018-01-20T07:40:09.459Z,3.40
2018-01-20T07:41:09.048Z,3.33
2018-01-20T07:42:09.070Z,3.36
2018-01-20T07:43:09.108Z,3.36
2018-01-20T07:44:09.174Z,3.53
2018-01-20T07:45:09.197Z,3.47
2018-01-20T07:46:09.245Z,3.47
2018-01-20T07:47:09.283Z,3.47
2018-01-20T07:48:09.325Z,3.43
2018-01-20T07:49:09.376Z,3.50
2018-01-20T07:50:09.405Z,3.50
2018-01-20T07:51:09.444Z,3.50
2018-01-20T07:52:09.501Z,3.49
2018-01-20T07:53:09.531Z,3.50
2018-01-20T07:54:09.587Z,3.50
2018-01-20T07:55:09.610Z,3.60
2018-01-20T07:56:09.651Z,3.53
2018-01-20T07:57:09.696Z,3.54
2018-01-20T07:58:09.764Z,3.54
2018-01-20T07:59:09.790Z,3.64
2018-01-20T08:00:09.813Z,3.67
2018-01-20T08:01:09.857Z,3.70
2018-01-20T08:02:09.903Z,3.64
2018-01-20T08:03:09.941Z,3.61
2018-01-20T08:04:09.998Z,3.61
2018-01-20T08:05:10.023Z,3.70
2018-01-20T08:06:10.063Z,3.70
2018-01-20T08:07:10.105Z,3.64
2018-01-20T08:08:10.148Z,3.76
2018-01-20T08:09:10.226Z,3.71
2018-01-20T08:10:10.233Z,3.65
2018-01-20T08:11:10.268Z,3.75
2018-01-20T08:12:10.322Z,3.72
2018-01-20T08:13:10.352Z,3.79
2018-01-20T08:14:10.435Z,3.89
2018-01-20T08:15:10.445Z,3.86
2018-01-20T08:16:10.481Z,3.85
2018-01-20T08:17:10.529Z,3.90
2018-01-20T08:18:10.565Z,3.94
2018-01-20T08:19:10.624Z,3.97
2018-01-20T08:20:10.684Z,3.97
2018-01-20T08:21:10.690Z,3.97
2018-01-20T08:22:10.733Z,3.94
2018-01-20T08:23:10.776Z,3.92
2018-01-20T08:24:10.814Z,4.07
2018-01-20T08:25:10.893Z,3.90
2018-01-20T08:26:10.899Z,3.90
2018-01-20T08:27:10.943Z,4.00
2018-01-20T08:28:11.006Z,4.00
2018-01-20T08:29:11.025Z,4.03
2018-01-20T08:30:11.100Z,3.98
2018-01-20T08:31:11.109Z,4.03
2018-01-20T08:32:11.157Z,4.06
2018-01-20T08:33:11.192Z,4.00
2018-01-20T08:34:11.234Z,3.98
2018-01-20T08:35:11.295Z,4.08
2018-01-20T08:36:11.334Z,4.07
2018-01-20T08:37:11.369Z,4.08
2018-01-20T08:38:11.402Z,4.08
2018-01-20T08:39:11.446Z,4.21
2018-01-20T08:40:11.504Z,4.18
2018-01-20T08:41:11.564Z,4.25
2018-01-20T08:42:11.575Z,4.19
2018-01-20T08:43:11.614Z,4.25
2018-01-20T08:44:11.662Z,4.29
2018-01-20T08:45:11.703Z,4.33
2018-01-20T08:46:11.756Z,4.39
2018-01-20T08:47:11.780Z,4.33
2018-01-20T08:48:11.816Z,4.40
2018-01-20T08:49:11.871Z,4.40
2018-01-20T08:50:11.906Z,4.36
2018-01-20T08:51:11.966Z,4.37
2018-01-20T08:52:11.992Z,4.36
2018-01-20T08:53:12.030Z,4.44
2018-01-20T08:54:12.081Z,4.34
2018-01-20T08:55:12.119Z,4.34
2018-01-20T08:56:12.184Z,4.40
2018-01-20T08:57:12.203Z,4.33
2018-01-20T08:58:12.246Z,4.39
2018-01-20T08:59:12.293Z,4.46
2018-01-20T09:00:12.327Z,4.40
2018-01-20T09:01:12.396Z,4.40
2018-01-20T09:02:12.409Z,4.51
2018-01-20T09:03:12.460Z,4.39
2018-01-20T09:04:12.499Z,4.43
2018-01-20T09:05:12.537Z,4.37
2018-01-20T09:06:12.601Z,4.50
2018-01-20T09:07:12.621Z,4.42
2018-01-20T09:08:12.682Z,4.47
2018-01-20T09:09:12.707Z,4.51
2018-01-20T09:10:12.747Z,4.62
2018-01-20T09:11:12.790Z,4.59
2018-01-20T09:12:12.851Z,4.59
2018-01-20T09:13:12.879Z,4.62
2018-01-20T09:14:12.921Z,4.67
2018-01-20T09:15:12.960Z,4.62
2018-01-20T09:16:13.004Z,4.62
2018-01-20T09:17:13.056Z,4.62
2018-01-20T09:18:13.088Z,4.70
2018-01-20T09:19:13.128Z,4.65
2018-01-20T09:20:13.173Z,4.67
2018-01-20T09:21:13.212Z,4.76
2018-01-20T09:22:13.271Z,4.70
2018-01-20T09:23:13.312Z,4.77
2018-01-20T09:24:13.343Z,4.79
2018-01-20T09:25:13.381Z,4.75
2018-01-20T09:26:13.427Z,4.89
2018-01-20T09:27:13.487Z,4.92
2018-01-20T09:28:13.510Z,4.92
2018-01-20T09:29:13.553Z,4.89
2018-01-20T09:30:13.601Z,4.86
2018-01-20T09:31:13.647Z,4.88
2018-01-20T09:32:13.697Z,4.89
2018-01-20T09:33:13.723Z,4.86
2018-01-20T09:34:13.766Z,4.88
2018-01-20T09:35:13.823Z,4.91
2018-01-20T09:36:13.854Z,4.94
2018-01-20T09:37:13.893Z,4.94
2018-01-20T09:38:13.952Z,4.99
2018-01-20T09:39:13.977Z,4.92
2018-01-20T09:40:14.022Z,4.94
2018-01-20T09:41:14.066Z,4.92
2018-01-20T09:42:14.108Z,4.98
2018-01-20T09:43:14.168Z,5.02
2018-01-20T09:44:14.195Z,5.12
2018-01-20T09:45:14.240Z,5.12
2018-01-20T09:46:14.293Z,5.02
2018-01-20T09:47:14.318Z,5.07
2018-01-20T09:48:14.361Z,5.09
2018-01-20T09:49:14.422Z,5.14
2018-01-20T09:50:14.457Z,5.25
2018-01-20T09:51:14.518Z,5.22
2018-01-20T09:52:14.536Z,5.19
2018-01-20T09:53:14.581Z,5.22
2018-01-20T09:54:14.638Z,5.25
2018-01-20T09:55:14.658Z,5.19
2018-01-20T09:56:14.719Z,5.31
2018-01-20T09:57:14.744Z,5.31
2018-01-20T09:58:14.795Z,5.30
2018-01-20T09:59:14.836Z,5.30
2018-01-20T10:00:14.915Z,5.37
2018-01-20T10:01:14.917Z,5.34
2018-01-20T10:02:14.959Z,5.34
2018-01-20T10:03:15.005Z,5.31
2018-01-20T10:04:15.052Z,5.37
2018-01-20T10:05:15.111Z,5.40
2018-01-20T10:06:15.134Z,5.32
2018-01-20T10:07:15.174Z,5.22
2018-01-20T10:08:15.218Z,5.30
2018-01-20T10:09:15.264Z,5.28
2018-01-20T10:10:15.319Z,5.22
2018-01-20T10:11:15.363Z,5.32
2018-01-20T10:12:15.398Z,5.30
2018-01-20T10:13:15.440Z,5.35
2018-01-20T10:14:15.481Z,5.43
2018-01-20T10:15:15.519Z,5.38
2018-01-20T10:16:15.590Z,5.56
2018-01-20T10:17:15.606Z,5.55
2018-01-20T10:18:15.648Z,5.55
2018-01-20T10:19:15.689Z,5.66
2018-01-20T10:20:16.731Z,5.70
2018-01-20T10:21:15.811Z,5.85
2018-01-20T10:22:15.825Z,5.77
2018-01-20T10:23:15.862Z,5.77
2018-01-20T10:24:15.908Z,5.93
2018-01-20T10:25:15.954Z,5.92
2018-01-20T10:26:16.013Z,5.98
2018-01-20T10:27:16.047Z,6.00
2018-01-20T10:28:16.085Z,6.10
2018-01-20T10:29:16.125Z,6.13
2018-01-20T10:30:16.170Z,6.09
2018-01-20T10:31:16.237Z,6.13
2018-01-20T10:32:16.257Z,6.30
2018-01-20T10:33:16.300Z,6.35
2018-01-20T10:34:16.345Z,6.46
2018-01-20T10:35:16.390Z,6.53
2018-01-20T10:36:16.452Z,6.63
2018-01-20T10:37:16.476Z,6.69
2018-01-20T10:38:16.525Z,6.86
2018-01-20T10:39:16.578Z,6.98
2018-01-20T10:40:16.608Z,6.91
2018-01-20T10:41:16.668Z,7.04
2018-01-20T10:42:16.695Z,7.04
2018-01-20T10:43:16.754Z,7.13
2018-01-20T10:44:16.783Z,7.04
2018-01-20T10:45:16.832Z,7.04
2018-01-20T10:46:16.875Z,7.07
2018-01-20T10:47:16.914Z,7.07
2018-01-20T10:48:16.977Z,6.90
2018-01-20T10:49:17.008Z,7.07
2018-01-20T10:50:17.055Z,7.01
2018-01-20T10:51:17.094Z,7.12
2018-01-20T10:52:17.142Z,7.16
2018-01-20T10:53:17.206Z,7.01
2018-01-20T10:54:17.264Z,7.13
2018-01-20T10:55:17.272Z,6.86
2018-01-20T10:56:17.321Z,6.94
2018-01-20T10:57:17.364Z,6.81
2018-01-20T10:58:17.408Z,6.56
2018-01-20T10:59:17.473Z,6.59
2018-01-20T11:00:17.503Z,6.46
2018-01-20T11:01:17.546Z,6.38
2018-01-20T11:02:17.597Z,6.35
2018-01-20T11:03:17.652Z,6.32
2018-01-20T11:04:17.679Z,6.32
2018-01-20T11:05:17.745Z,6.29
2018-01-20T11:06:17.769Z,6.28
2018-01-20T11:07:17.812Z,6.30
2018-01-20T11:08:17.871Z,6.40
2018-01-20T11:09:17.900Z,6.44
2018-01-20T11:10:17.948Z,6.41
2018-01-20T11:11:18.004Z,6.30
2018-01-20T11:12:18.035Z,6.35
2018-01-20T11:13:18.108Z,6.43
2018-01-20T11:14:18.125Z,6.36
2018-01-20T11:15:18.166Z,6.48
2018-01-20T11:16:18.212Z,6.59
2018-01-20T11:17:18.258Z,6.51
2018-01-20T11:18:18.416Z,6.40
2018-01-20T11:19:18.398Z,6.35
2018-01-20T11:20:18.431Z,6.43
2018-01-20T11:21:18.471Z,6.50
2018-01-20T11:22:18.506Z,6.66
2018-01-20T11:23:18.654Z,6.66
2018-01-20T11:24:18.608Z,6.87
2018-01-20T11:25:18.652Z,6.72
2018-01-20T11:26:19.280Z,6.63
2018-01-20T11:27:18.778Z,6.72
2018-01-20T11:28:18.788Z,6.77
2018-01-20T11:29:18.888Z,6.65
2018-01-20T11:30:18.835Z,6.63
2018-01-20T11:31:18.877Z,6.72
2018-01-20T11:32:18.920Z,6.77
2018-01-20T11:33:18.967Z,6.65
2018-01-20T11:34:19.023Z,6.59
2018-01-20T11:35:19.048Z,6.62
2018-01-20T11:36:19.096Z,6.59
2018-01-20T11:37:19.141Z,6.65
2018-01-20T11:38:19.184Z,6.68
2018-01-20T11:39:19.246Z,6.65
2018-01-20T11:40:19.277Z,6.77
2018-01-20T11:41:19.315Z,6.79
2018-01-20T11:42:19.362Z,6.86
2018-01-20T11:43:19.488Z,6.95
2018-01-20T11:44:19.452Z,6.97
2018-01-20T11:45:19.496Z,7.12
2018-01-20T11:46:19.543Z,7.15
2018-01-20T11:47:19.579Z,7.09
2018-01-20T11:48:19.647Z,7.12
2018-01-20T11:49:19.675Z,7.13
2018-01-20T11:50:19.733Z,6.90
2018-01-20T11:51:19.760Z,6.81
2018-01-20T11:52:19.804Z,6.68
2018-01-20T11:53:19.852Z,6.66
2018-01-20T11:54:19.909Z,6.66
2018-01-20T11:55:19.937Z,6.69
2018-01-20T11:56:19.994Z,6.63
2018-01-20T11:57:20.030Z,6.66
2018-01-20T11:58:20.071Z,6.65
2018-01-20T11:59:20.144Z,6.63
2018-01-20T12:00:20.157Z,6.43
2018-01-20T12:01:20.227Z,6.47
2018-01-20T12:02:20.251Z,6.38
2018-01-20T12:03:20.293Z,6.28
2018-01-20T12:04:20.337Z,6.30
2018-01-20T12:05:20.381Z,6.32
2018-01-20T12:06:20.447Z,6.40
2018-01-20T12:07:20.471Z,6.29
2018-01-20T12:08:20.512Z,6.33
2018-01-20T12:09:20.557Z,6.35
2018-01-20T12:10:20.605Z,6.48
2018-01-20T12:11:20.684Z,6.51
2018-01-20T12:12:20.696Z,6.36
2018-01-20T12:13:20.733Z,6.33
2018-01-20T12:14:20.779Z,6.40
2018-01-20T12:15:20.827Z,6.38
2018-01-20T12:16:20.890Z,6.43
2018-01-20T12:17:20.926Z,6.44
2018-01-20T12:18:20.955Z,6.38
2018-01-20T12:19:21.002Z,6.40
2018-01-20T12:20:21.041Z,6.48
2018-01-20T12:21:21.085Z,6.36
2018-01-20T12:22:21.148Z,6.35
2018-01-20T12:23:21.177Z,6.30
2018-01-20T12:24:21.216Z,6.35
2018-01-20T12:25:21.259Z,6.33
2018-01-20T12:26:21.306Z,6.35
2018-01-20T12:27:21.362Z,6.32
2018-01-20T12:28:21.397Z,6.35
2018-01-20T12:29:21.430Z,6.40
2018-01-20T12:30:21.476Z,6.50
2018-01-20T12:31:21.520Z,6.38
2018-01-20T12:32:21.589Z,6.36
2018-01-20T12:33:21.635Z,6.30
2018-01-20T12:34:21.654Z,6.43
2018-01-20T12:35:21.698Z,6.46
2018-01-20T12:36:21.749Z,6.50
2018-01-20T12:37:21.787Z,6.62
2018-01-20T12:38:21.866Z,6.56
2018-01-20T12:39:21.869Z,6.69
2018-01-20T12:40:21.914Z,6.69
2018-01-20T12:41:21.954Z,6.66
2018-01-20T12:42:22.012Z,6.68
2018-01-20T12:43:22.083Z,6.69
2018-01-20T12:44:22.085Z,6.76
2018-01-20T12:45:22.136Z,6.77
2018-01-20T12:46:22.174Z,6.80
2018-01-20T12:47:22.217Z,6.80
2018-01-20T12:48:22.300Z,6.87
2018-01-20T12:49:22.305Z,6.83
2018-01-20T12:50:22.347Z,6.73
2018-01-20T12:51:22.929Z,6.84
2018-01-20T12:52:22.438Z,6.80
2018-01-20T12:53:22.499Z,6.81
2018-01-20T12:54:22.548Z,6.84
2018-01-20T12:55:22.570Z,6.76
2018-01-20T12:56:22.617Z,6.76
2018-01-20T12:57:22.661Z,6.72
2018-01-20T12:58:22.701Z,6.77
2018-01-20T12:59:22.765Z,6.72
2018-01-20T13:00:22.794Z,6.73
2018-01-20T13:01:22.833Z,6.77
2018-01-20T13:02:22.909Z,6.76
2018-01-20T13:03:22.929Z,6.81
2018-01-20T13:04:22.963Z,6.87
2018-01-20T13:05:23.011Z,6.77
2018-01-20T13:06:23.053Z,6.80
2018-01-20T13:07:23.108Z,6.86
2018-01-20T13:08:23.139Z,6.84
2018-01-20T13:09:23.184Z,6.79
2018-01-20T13:10:23.226Z,6.83
2018-01-20T13:11:23.268Z,6.81
2018-01-20T13:12:23.333Z,6.79
2018-01-20T13:13:23.358Z,6.84
2018-01-20T13:14:23.403Z,6.83
2018-01-20T13:15:23.447Z,6.73
2018-01-20T13:16:23.499Z,6.79
2018-01-20T13:17:23.552Z,6.79
2018-01-20T13:18:23.657Z,6.69
2018-01-20T13:19:23.621Z,6.68